This is the latest recevied weather packets stored in our database for station/object WD4LSS. If no packets are shown the sender has not sent any weather packets the latest 10 day(s).
| Time | Temp. | Humidity | Pressure | Rain* | Wind** | Luminosity | Snow |
|---|---|---|---|---|---|---|---|
| 1777789517 | 3.89° C | 87% | 1016.4 hPa | 0 mm | - | - | - |
| 1777789217 | 3.89° C | 87% | 1016.4 hPa | 0 mm | - | - | - |
| 1777786817 | 4.44° C | 85% | 1016.4 hPa | 0 mm | - | - | - |
| 1777785617 | 4.44° C | 84% | 1016.2 hPa | 0 mm | - | - | - |
| 1777785017 | 5° C | 84% | 1016.3 hPa | 0 mm | - | - | - |
| 1777784117 | 5° C | 83% | 1016.1 hPa | 0 mm | - | - | - |
| 1777783217 | 5.56° C | 81% | 1016.2 hPa | 0 mm | - | - | - |
| 1777782317 | 6.11° C | 79% | 1015.9 hPa | 0 mm | - | - | - |
| 1777777516 | 8.89° C | 69% | 1015.5 hPa | 0 mm | - | - | - |
| 1777775416 | 10.56° C | 61% | 1015.6 hPa | 0 mm | - | - | - |
| 1777774516 | 11.11° C | 59% | 1015.4 hPa | 0 mm | - | - | - |
| 1777773636 | 11.11° C | 60% | 1015.3 hPa | 0 mm | - | - | - |
| 1777773336 | 11.67° C | 59% | 1015.3 hPa | 0 mm | - | - | - |
| 1777772716 | 11.67° C | 62% | 1015.2 hPa | 0 mm | - | - | - |
| 1777771836 | 11.67° C | 62% | 1014.9 hPa | 0 mm | - | - | - |
| 1777771216 | 11.67° C | 65% | 1014.6 hPa | 0 mm | - | - | - |
| 1777769715 | 11.67° C | 71% | 1014 hPa | 0 mm | - | - | - |
| 1777769116 | 12.22° C | 71% | 1013.9 hPa | 0 mm | - | - | - |
| 1777765517 | 13.89° C | 67% | 1013.2 hPa | 0 mm | - | - | - |
| 1777763737 | 15° C | 63% | 1012.6 hPa | 0 mm | - | - | - |
| 1777762817 | 15.56° C | 59% | 1012.3 hPa | 0 mm | - | - | - |
| 1777762217 | 15.56° C | 56% | 1012.4 hPa | 0 mm | - | - | - |
| 1777760437 | 16.67° C | 50% | 1012.2 hPa | 0 mm | - | - | - |
| 1777757717 | 17.22° C | 47% | 1011.8 hPa | 0 mm | - | - | - |
| 1777753217 | 16.67° C | 50% | 1011.9 hPa | 0 mm | - | - | - |
* Rain latest hour (hover to see other rain measurements)
** Current wind speed in m/s (hover to see current wind gust speed)